createdAt,value
2017-08-18T00:01:31.148Z,20.60
2017-08-18T00:03:57.453Z,20.70
2017-08-18T00:06:23.745Z,20.80
2017-08-18T00:08:50.033Z,20.80
2017-08-18T00:11:16.305Z,20.80
2017-08-18T00:13:42.592Z,20.90
2017-08-18T00:16:09.785Z,20.90
2017-08-18T00:18:36.054Z,20.80
2017-08-18T00:21:02.378Z,20.90
2017-08-18T00:23:28.659Z,20.90
2017-08-18T00:25:54.945Z,20.90
2017-08-18T00:28:21.213Z,20.90
2017-08-18T00:30:48.482Z,20.80
2017-08-18T00:33:14.782Z,20.80
2017-08-18T00:35:41.131Z,20.80
2017-08-18T00:38:07.446Z,20.80
2017-08-18T00:40:33.784Z,20.70
2017-08-18T00:43:00.112Z,20.60
2017-08-18T00:45:26.420Z,20.60
2017-08-18T00:47:54.839Z,20.60
2017-08-18T00:50:21.101Z,20.60
2017-08-18T00:52:47.392Z,20.50
2017-08-18T00:55:13.693Z,20.40
2017-08-18T00:57:40.008Z,20.30
2017-08-18T01:00:06.270Z,20.40
2017-08-18T01:02:32.568Z,20.40
2017-08-18T01:04:58.853Z,20.40
2017-08-18T01:07:25.166Z,20.40
2017-08-18T01:09:51.478Z,20.30
2017-08-18T01:12:17.788Z,20.30
2017-08-18T01:14:44.048Z,20.30
2017-08-18T01:17:10.340Z,20.40
2017-08-18T01:19:36.659Z,20.30
2017-08-18T01:22:02.901Z,20.30
2017-08-18T01:24:29.213Z,20.30
2017-08-18T01:26:55.478Z,20.30
2017-08-18T01:29:21.781Z,20.30
2017-08-18T01:31:48.060Z,20.20
2017-08-18T01:34:14.410Z,20.00
2017-08-18T01:36:40.669Z,19.80
2017-08-18T01:39:06.963Z,19.70
2017-08-18T01:41:33.248Z,19.50
2017-08-18T01:43:59.517Z,19.60
2017-08-18T01:46:25.809Z,19.70
2017-08-18T01:48:52.078Z,19.80
2017-08-18T01:51:18.377Z,19.80
2017-08-18T01:53:44.639Z,19.80
2017-08-18T01:56:10.894Z,19.80
2017-08-18T01:58:37.183Z,19.80
2017-08-18T02:01:11.984Z,19.80
2017-08-18T02:03:38.243Z,19.80
2017-08-18T02:06:04.924Z,19.80
2017-08-18T02:08:31.206Z,19.70
2017-08-18T02:10:57.469Z,19.70
2017-08-18T02:13:23.749Z,19.80
2017-08-18T02:15:50.014Z,19.80
2017-08-18T02:18:16.302Z,19.70
2017-08-18T02:20:42.580Z,19.60
2017-08-18T02:23:09.330Z,19.60
2017-08-18T02:25:35.590Z,19.40
2017-08-18T02:28:01.858Z,19.40
2017-08-18T02:30:28.145Z,19.40
2017-08-18T02:32:54.430Z,19.40
2017-08-18T02:35:20.712Z,19.40
2017-08-18T02:37:46.972Z,19.40
2017-08-18T02:40:14.718Z,19.40
2017-08-18T02:42:41.890Z,19.20
2017-08-18T02:45:08.179Z,19.20
2017-08-18T02:47:34.447Z,19.20
2017-08-18T02:50:00.987Z,19.20
2017-08-18T02:52:27.253Z,19.20
2017-08-18T02:54:53.534Z,19.20
2017-08-18T02:57:19.796Z,19.20
2017-08-18T02:59:46.061Z,19.20
2017-08-18T03:02:12.365Z,19.20
2017-08-18T03:04:38.624Z,19.20
2017-08-18T03:07:04.909Z,19.40
2017-08-18T03:09:31.168Z,19.40
2017-08-18T03:11:57.438Z,19.40
2017-08-18T03:14:23.722Z,19.40
2017-08-18T03:16:49.994Z,19.40
2017-08-18T03:19:16.291Z,19.40
2017-08-18T03:21:42.559Z,19.30
2017-08-18T03:24:08.893Z,19.30
2017-08-18T03:26:35.168Z,19.30
2017-08-18T03:29:01.443Z,19.20
2017-08-18T03:31:27.713Z,19.30
2017-08-18T03:33:53.972Z,19.40
2017-08-18T03:36:20.269Z,19.40
2017-08-18T03:38:46.533Z,19.40
2017-08-18T03:41:12.828Z,19.30
2017-08-18T03:43:39.091Z,19.20
2017-08-18T03:46:05.609Z,19.20
2017-08-18T03:48:31.886Z,19.20
2017-08-18T03:50:58.133Z,19.00
2017-08-18T03:53:24.465Z,19.00
2017-08-18T03:55:50.729Z,19.00
2017-08-18T03:58:17.007Z,19.00
2017-08-18T04:00:47.707Z,19.00
2017-08-18T04:03:13.971Z,19.00
2017-08-18T04:05:42.504Z,19.00
2017-08-18T04:08:08.829Z,19.20
2017-08-18T04:10:35.109Z,19.20
2017-08-18T04:13:01.386Z,19.30
2017-08-18T04:15:27.677Z,19.30
2017-08-18T04:17:53.933Z,19.30
2017-08-18T04:20:20.221Z,19.20
2017-08-18T04:22:46.490Z,19.20
2017-08-18T04:25:12.806Z,19.10
2017-08-18T04:27:39.072Z,19.10
2017-08-18T04:30:05.685Z,19.20
2017-08-18T04:32:31.952Z,19.20
2017-08-18T04:34:58.247Z,19.30
2017-08-18T04:37:24.525Z,19.20
2017-08-18T04:39:50.801Z,19.20
2017-08-18T04:42:17.105Z,19.30
2017-08-18T04:44:43.376Z,19.20
2017-08-18T04:47:10.244Z,19.20
2017-08-18T04:49:36.504Z,19.30
2017-08-18T04:52:02.759Z,19.30
2017-08-18T04:54:29.083Z,19.30
2017-08-18T04:56:55.354Z,19.30
2017-08-18T04:59:21.620Z,19.30
2017-08-18T05:01:47.884Z,19.20
2017-08-18T05:04:14.159Z,19.30
2017-08-18T05:06:40.434Z,19.30
2017-08-18T05:09:06.740Z,19.20
2017-08-18T05:11:33.047Z,19.20
2017-08-18T05:13:59.323Z,19.10
2017-08-18T05:16:25.598Z,19.00
2017-08-18T05:18:51.870Z,19.10
2017-08-18T05:21:18.472Z,19.20
2017-08-18T05:23:44.759Z,19.40
2017-08-18T05:26:11.045Z,19.50
2017-08-18T05:28:37.316Z,19.50
2017-08-18T05:31:03.599Z,19.60
2017-08-18T05:33:29.890Z,19.50
2017-08-18T05:35:56.173Z,19.60
2017-08-18T05:38:23.347Z,19.70
2017-08-18T05:40:49.610Z,19.60
2017-08-18T05:43:15.922Z,19.60
2017-08-18T05:45:42.189Z,19.60
2017-08-18T05:48:08.469Z,19.40
2017-08-18T05:50:34.745Z,19.30
2017-08-18T05:53:01.024Z,19.50
2017-08-18T05:55:27.292Z,19.70
2017-08-18T05:57:53.556Z,19.90
2017-08-18T06:00:19.842Z,20.00
2017-08-18T06:02:46.428Z,20.00
2017-08-18T06:05:12.747Z,20.10
2017-08-18T06:07:38.996Z,20.20
2017-08-18T06:10:05.333Z,20.30
2017-08-18T06:12:31.605Z,20.30
2017-08-18T06:14:57.880Z,20.30
2017-08-18T06:17:25.157Z,20.20
2017-08-18T06:19:51.437Z,20.10
2017-08-18T06:22:17.701Z,20.20
2017-08-18T06:24:43.998Z,20.20
2017-08-18T06:27:10.291Z,20.30
2017-08-18T06:29:37.002Z,20.30
2017-08-18T06:32:03.274Z,20.30
2017-08-18T06:34:29.572Z,20.50
2017-08-18T06:36:55.868Z,20.40
2017-08-18T06:39:22.145Z,20.50
2017-08-18T06:41:48.442Z,20.60
2017-08-18T06:44:14.712Z,20.80
2017-08-18T06:46:40.991Z,20.70
2017-08-18T06:49:07.293Z,20.80
2017-08-18T06:51:33.597Z,20.80
2017-08-18T06:53:59.860Z,20.70
2017-08-18T06:56:26.146Z,21.00
2017-08-18T06:58:52.447Z,21.00
2017-08-18T07:01:18.713Z,21.00
2017-08-18T07:03:45.002Z,21.10
2017-08-18T07:06:11.278Z,21.20
2017-08-18T07:08:37.576Z,21.30
2017-08-18T07:11:05.413Z,21.70
2017-08-18T07:13:31.677Z,21.80
2017-08-18T07:15:59.599Z,22.00
2017-08-18T07:18:26.484Z,22.10
2017-08-18T07:21:03.373Z,22.30
2017-08-18T07:23:32.658Z,22.60
2017-08-18T07:25:59.500Z,22.90
2017-08-18T07:28:26.346Z,23.00
2017-08-18T07:30:56.068Z,23.10
2017-08-18T07:33:22.797Z,23.10
2017-08-18T07:35:49.078Z,23.40
2017-08-18T07:38:16.287Z,23.40
2017-08-18T07:40:42.575Z,23.70
2017-08-18T07:43:08.859Z,23.80
2017-08-18T07:45:37.243Z,23.90
2017-08-18T07:48:04.351Z,24.00
2017-08-18T07:50:33.854Z,23.90
2017-08-18T07:53:00.130Z,23.60
2017-08-18T07:55:26.389Z,23.60
2017-08-18T07:57:52.672Z,23.70
2017-08-18T08:00:20.520Z,23.80
2017-08-18T08:02:46.825Z,24.00
2017-08-18T08:05:13.090Z,23.80
2017-08-18T08:07:39.381Z,23.70
2017-08-18T08:10:05.657Z,23.80
2017-08-18T08:12:31.935Z,24.00
2017-08-18T08:14:58.197Z,24.00
2017-08-18T08:17:24.485Z,24.00
2017-08-18T08:19:50.746Z,24.00
2017-08-18T08:22:17.024Z,23.90
2017-08-18T08:24:43.273Z,24.10
2017-08-18T08:27:09.567Z,24.00
2017-08-18T08:29:36.172Z,23.80
2017-08-18T08:32:02.442Z,23.60
2017-08-18T08:34:28.718Z,23.70
2017-08-18T08:36:55.059Z,24.00
2017-08-18T08:39:21.351Z,24.20
2017-08-18T08:41:47.632Z,24.40
2017-08-18T08:44:13.891Z,24.60
2017-08-18T08:46:40.182Z,25.10
2017-08-18T08:49:06.461Z,25.50
2017-08-18T08:51:32.734Z,25.80
2017-08-18T08:53:58.996Z,26.40
2017-08-18T08:56:25.498Z,26.70
2017-08-18T08:58:51.849Z,26.90
2017-08-18T09:01:18.163Z,26.80
2017-08-18T09:03:44.467Z,26.80
2017-08-18T09:06:10.748Z,26.90
2017-08-18T09:08:37.025Z,26.70
2017-08-18T09:11:03.307Z,26.70
2017-08-18T09:13:29.905Z,26.90
2017-08-18T09:15:56.241Z,26.80
2017-08-18T09:18:22.541Z,26.70
2017-08-18T09:20:48.812Z,26.60
2017-08-18T09:23:15.882Z,26.70
2017-08-18T09:25:42.158Z,27.00
2017-08-18T09:28:09.565Z,27.20
2017-08-18T09:30:35.826Z,27.60
2017-08-18T09:33:02.149Z,27.80
2017-08-18T09:35:28.466Z,28.10
2017-08-18T09:37:54.730Z,28.20
2017-08-18T09:40:21.061Z,28.20
2017-08-18T09:42:47.342Z,28.20
2017-08-18T09:45:13.967Z,28.20
2017-08-18T09:47:40.264Z,28.00
2017-08-18T09:50:18.727Z,28.00
2017-08-18T09:52:57.195Z,28.10
2017-08-18T10:08:51.873Z,28.40
2017-08-18T10:11:18.155Z,28.30
2017-08-18T10:13:44.431Z,28.30
2017-08-18T10:16:10.703Z,28.20
2017-08-18T10:18:37.018Z,28.20
2017-08-18T10:21:03.318Z,28.30
2017-08-18T10:23:29.589Z,28.40
2017-08-18T10:25:55.862Z,28.40
2017-08-18T10:28:22.173Z,28.40
2017-08-18T10:30:48.432Z,28.50
2017-08-18T10:33:15.151Z,28.40
2017-08-18T10:35:41.493Z,28.70
2017-08-18T10:38:07.778Z,28.90
2017-08-18T10:40:34.057Z,29.20
2017-08-18T10:43:00.315Z,29.20
2017-08-18T10:45:26.620Z,29.30
2017-08-18T10:47:53.167Z,29.50
2017-08-18T10:50:19.448Z,29.50
2017-08-18T10:52:45.710Z,29.60
2017-08-18T10:55:11.990Z,29.70
2017-08-18T10:57:38.312Z,29.80
2017-08-18T11:00:04.581Z,30.10
2017-08-18T11:02:30.892Z,30.30
2017-08-18T11:04:57.162Z,30.60
2017-08-18T11:07:23.509Z,31.20
2017-08-18T11:09:49.774Z,31.70
2017-08-18T11:12:16.386Z,31.80
2017-08-18T11:14:42.656Z,32.40
2017-08-18T11:17:08.955Z,33.00
2017-08-18T11:19:35.283Z,33.20
2017-08-18T11:22:01.572Z,33.30
2017-08-18T11:24:27.882Z,33.20
2017-08-18T11:26:54.150Z,33.40
2017-08-18T11:29:20.458Z,33.70
2017-08-18T11:31:47.601Z,33.70
2017-08-18T11:34:13.922Z,33.60
2017-08-18T11:36:40.247Z,33.80
2017-08-18T11:39:06.952Z,34.30
2017-08-18T11:41:33.289Z,35.50
2017-08-18T11:43:59.574Z,37.00
2017-08-18T11:46:25.865Z,37.80
2017-08-18T11:48:52.197Z,38.30
2017-08-18T11:51:18.504Z,38.30
2017-08-18T11:53:44.782Z,38.50
2017-08-18T11:56:11.091Z,39.30
2017-08-18T11:58:37.357Z,40.40
2017-08-18T12:01:03.641Z,41.10
2017-08-18T12:03:29.921Z,40.30
2017-08-18T12:05:56.213Z,40.40
2017-08-18T12:08:22.515Z,42.10
2017-08-18T12:10:49.138Z,43.20
2017-08-18T12:13:15.428Z,44.90
2017-08-18T12:15:41.704Z,47.70
2017-08-18T12:18:08.935Z,49.40
2017-08-18T12:20:35.239Z,51.90
2017-08-18T12:23:01.517Z,53.30
2017-08-18T12:25:40.118Z,53.50
2017-08-18T12:28:07.412Z,53.00
2017-08-18T12:30:33.688Z,51.80
2017-08-18T12:33:00.040Z,52.70
2017-08-18T12:35:27.290Z,51.60
2017-08-18T12:37:53.595Z,50.50
2017-08-18T12:40:19.892Z,51.70
2017-08-18T12:42:46.164Z,51.90
2017-08-18T12:45:12.506Z,53.60
2017-08-18T12:47:38.805Z,54.40
2017-08-18T12:50:05.154Z,55.90
2017-08-18T12:52:31.473Z,55.60
2017-08-18T12:54:57.772Z,55.70
2017-08-18T12:57:24.050Z,55.00
2017-08-18T12:59:50.319Z,54.90
2017-08-18T13:02:16.596Z,56.20
2017-08-18T13:04:47.720Z,56.30
2017-08-18T13:07:14.035Z,56.70
2017-08-18T13:09:40.292Z,58.30
2017-08-18T13:12:07.152Z,57.00
2017-08-18T13:14:33.438Z,56.70
2017-08-18T13:16:59.779Z,56.60
2017-08-18T13:19:26.053Z,57.40
2017-08-18T13:21:52.699Z,57.60
2017-08-18T13:24:19.004Z,57.40
2017-08-18T13:26:45.297Z,56.90
2017-08-18T13:29:11.580Z,57.00
2017-08-18T13:31:37.903Z,57.70
2017-08-18T13:34:04.199Z,58.00
2017-08-18T13:36:30.505Z,57.90
2017-08-18T13:38:56.833Z,57.80
2017-08-18T13:41:23.114Z,58.40
2017-08-18T13:43:49.663Z,57.70
2017-08-18T13:46:15.937Z,57.80
2017-08-18T13:48:42.194Z,57.40
2017-08-18T13:51:08.495Z,57.90
2017-08-18T13:53:34.811Z,59.50
2017-08-18T13:56:01.959Z,59.20
2017-08-18T13:58:28.231Z,58.10
2017-08-18T14:00:54.529Z,58.00
2017-08-18T14:03:20.801Z,59.00
2017-08-18T14:05:47.107Z,58.80
2017-08-18T14:08:13.472Z,58.50
2017-08-18T14:10:40.116Z,57.10
2017-08-18T14:13:06.406Z,55.80
2017-08-18T14:15:32.677Z,53.80
2017-08-18T14:17:58.971Z,54.10
2017-08-18T14:20:25.236Z,54.40
2017-08-18T14:22:51.518Z,53.80
2017-08-18T14:38:35.458Z,52.10
2017-08-18T14:41:01.744Z,53.20
2017-08-18T14:43:28.252Z,53.60
2017-08-18T14:45:54.553Z,54.10
2017-08-18T14:48:20.826Z,53.80
2017-08-18T14:50:47.129Z,52.70
2017-08-18T14:53:13.682Z,49.80
2017-08-18T14:55:39.938Z,49.40
2017-08-18T14:58:06.230Z,49.10
2017-08-18T15:00:32.515Z,49.50
2017-08-18T15:02:58.845Z,50.50
2017-08-18T15:05:25.151Z,50.70
2017-08-18T15:07:51.436Z,49.70
2017-08-18T15:10:17.726Z,50.10
2017-08-18T15:12:43.993Z,49.80
2017-08-18T15:15:10.663Z,48.90
2017-08-18T15:17:36.959Z,47.30
2017-08-18T15:20:03.234Z,46.20
2017-08-18T15:22:29.521Z,44.50
2017-08-18T15:24:55.835Z,41.20
2017-08-18T15:27:22.127Z,39.30
2017-08-18T15:29:49.170Z,38.40
2017-08-18T15:32:15.461Z,37.50
2017-08-18T15:34:41.763Z,36.90
2017-08-18T15:37:08.348Z,36.40
2017-08-18T15:39:34.647Z,35.60
2017-08-18T15:42:00.921Z,35.30
2017-08-18T15:44:27.256Z,34.70
2017-08-18T15:46:53.533Z,34.20
2017-08-18T15:49:19.831Z,33.90
2017-08-18T15:51:46.153Z,33.10
2017-08-18T15:54:12.431Z,32.70
2017-08-18T15:56:38.718Z,32.50
2017-08-18T15:59:05.422Z,32.20
2017-08-18T16:01:31.696Z,32.20
2017-08-18T16:03:57.966Z,32.20
2017-08-18T16:06:24.273Z,32.10
2017-08-18T16:08:50.548Z,31.60
2017-08-18T16:11:16.886Z,31.40
2017-08-18T16:13:43.152Z,31.50
2017-08-18T16:16:09.428Z,31.40
2017-08-18T16:18:35.715Z,31.40
2017-08-18T16:21:02.007Z,31.50
2017-08-18T16:23:28.298Z,31.60
2017-08-18T16:25:54.947Z,31.60
2017-08-18T16:28:21.286Z,31.50
2017-08-18T16:30:47.552Z,31.10
2017-08-18T16:33:14.880Z,30.40
2017-08-18T16:35:41.140Z,30.30
2017-08-18T16:38:07.432Z,29.90
2017-08-18T16:40:33.682Z,29.80
2017-08-18T16:42:59.976Z,29.80
2017-08-18T16:45:26.274Z,29.70
2017-08-18T16:47:52.621Z,29.60
2017-08-18T16:50:18.910Z,29.40
2017-08-18T16:52:45.201Z,29.30
2017-08-18T16:55:11.526Z,29.40
2017-08-18T16:57:38.222Z,28.70
2017-08-18T17:00:04.690Z,28.10
2017-08-18T17:02:31.066Z,27.80
2017-08-18T17:04:57.345Z,27.40
2017-08-18T17:07:23.631Z,27.30
2017-08-18T17:09:49.938Z,26.80
2017-08-18T17:12:16.237Z,26.40
2017-08-18T17:14:42.565Z,26.10
2017-08-18T17:17:08.848Z,25.70
2017-08-18T17:19:35.149Z,25.50
2017-08-18T17:22:01.442Z,25.10
2017-08-18T17:24:28.529Z,24.70
2017-08-18T17:26:55.203Z,24.60
2017-08-18T17:29:21.489Z,24.40
2017-08-18T17:31:47.755Z,24.40
2017-08-18T17:34:14.027Z,24.10
2017-08-18T17:36:40.389Z,24.00
2017-08-18T17:39:06.680Z,23.70
2017-08-18T17:41:32.945Z,23.30
2017-08-18T17:43:59.226Z,23.00
2017-08-18T17:46:26.577Z,22.90
2017-08-18T17:48:52.882Z,22.70
2017-08-18T17:51:19.185Z,22.40
2017-08-18T17:53:45.489Z,22.20
2017-08-18T17:56:11.790Z,22.10
2017-08-18T17:58:38.089Z,21.90
2017-08-18T18:01:04.686Z,21.80
2017-08-18T18:03:31.037Z,21.80
2017-08-18T18:05:57.355Z,21.60
2017-08-18T18:08:23.977Z,21.40
2017-08-18T18:10:50.259Z,20.70
2017-08-18T18:13:16.508Z,19.80
2017-08-18T18:15:51.586Z,19.30
2017-08-18T18:18:17.867Z,18.90
2017-08-18T18:20:44.170Z,18.70
2017-08-18T18:23:10.430Z,18.30
2017-08-18T18:25:36.725Z,18.30
2017-08-18T18:28:03.104Z,18.60
2017-08-18T18:30:30.499Z,18.80
2017-08-18T18:32:56.773Z,19.00
2017-08-18T18:35:23.087Z,19.20
2017-08-18T18:37:49.683Z,19.50
2017-08-18T18:40:16.027Z,19.60
2017-08-18T18:42:42.413Z,19.80
2017-08-18T18:45:08.790Z,19.90
2017-08-18T18:47:35.100Z,19.90
2017-08-18T18:50:01.397Z,20.10
2017-08-18T18:52:27.729Z,20.10
2017-08-18T18:54:54.366Z,20.20
2017-08-18T18:57:20.667Z,20.30
2017-08-18T18:59:47.005Z,20.20
2017-08-18T19:02:13.310Z,20.30
2017-08-18T19:04:39.647Z,20.40
2017-08-18T19:07:05.992Z,20.40
2017-08-18T19:09:32.279Z,20.30
2017-08-18T19:11:59.616Z,20.30
2017-08-18T19:14:25.926Z,20.10
2017-08-18T19:16:52.611Z,20.10
2017-08-18T19:19:18.889Z,20.10
2017-08-18T19:21:45.166Z,20.00
2017-08-18T19:24:12.067Z,20.00
2017-08-18T19:26:38.815Z,20.00
2017-08-18T19:29:06.567Z,19.80
2017-08-18T19:31:32.887Z,19.60
2017-08-18T19:33:59.787Z,19.60
2017-08-18T19:36:26.147Z,19.70
2017-08-18T19:38:52.438Z,19.90
2017-08-18T19:41:19.225Z,19.90
2017-08-18T19:43:46.170Z,20.00
2017-08-18T19:46:12.457Z,19.90
2017-08-18T19:48:38.816Z,19.80
2017-08-18T19:51:05.104Z,19.70
2017-08-18T19:53:31.415Z,19.70
2017-08-18T19:55:57.717Z,19.60
2017-08-18T19:58:25.411Z,19.40
2017-08-18T20:00:51.757Z,19.60
2017-08-18T20:03:21.029Z,19.60
2017-08-18T20:05:47.341Z,19.40
2017-08-18T20:08:13.656Z,19.30
2017-08-18T20:10:39.940Z,19.20
2017-08-18T20:13:06.253Z,19.20
2017-08-18T20:15:32.585Z,19.30
2017-08-18T20:17:58.954Z,19.20
2017-08-18T20:20:25.290Z,19.30
2017-08-18T20:22:51.625Z,19.10
2017-08-18T20:25:17.912Z,18.80
2017-08-18T20:27:44.249Z,18.70
2017-08-18T20:30:10.559Z,18.80
2017-08-18T20:32:36.820Z,18.80
2017-08-18T20:35:03.936Z,18.70
2017-08-18T20:37:30.282Z,18.60
2017-08-18T20:39:56.617Z,18.50
2017-08-18T20:42:22.958Z,18.30
2017-08-18T20:44:49.291Z,18.40
2017-08-18T20:47:16.329Z,18.50
2017-08-18T20:49:42.993Z,18.70
2017-08-18T20:52:09.306Z,18.80
2017-08-18T20:54:35.604Z,18.80
2017-08-18T20:57:01.876Z,18.80
2017-08-18T20:59:28.214Z,19.00
2017-08-18T21:01:54.516Z,19.10
2017-08-18T21:04:20.814Z,18.90
2017-08-18T21:06:47.415Z,18.80
2017-08-18T21:09:13.761Z,19.00
2017-08-18T21:11:40.967Z,19.10
2017-08-18T21:14:07.279Z,19.10
2017-08-18T21:16:33.579Z,19.10
2017-08-18T21:19:00.562Z,19.10
2017-08-18T21:21:26.841Z,19.30
2017-08-18T21:23:53.122Z,19.30
2017-08-18T21:26:19.462Z,19.30
2017-08-18T21:28:45.758Z,19.30
2017-08-18T21:31:12.069Z,19.20
2017-08-18T21:33:38.330Z,19.10
2017-08-18T21:36:04.663Z,19.20
2017-08-18T21:38:30.946Z,19.40
2017-08-18T21:40:57.529Z,19.40
2017-08-18T21:46:07.494Z,19.30
2017-08-18T21:48:33.748Z,19.30
2017-08-18T21:51:00.047Z,19.30
2017-08-18T21:53:26.335Z,19.40
2017-08-18T21:55:52.648Z,19.50
2017-08-18T21:58:18.933Z,19.60
2017-08-18T22:00:45.229Z,19.70
2017-08-18T22:03:11.517Z,19.80
2017-08-18T22:05:37.836Z,19.70
2017-08-18T22:08:04.106Z,19.80
2017-08-18T22:10:30.726Z,19.80
2017-08-18T22:12:57.013Z,19.80
2017-08-18T22:15:23.281Z,19.90
2017-08-18T22:17:49.589Z,19.80
2017-08-18T22:20:15.848Z,19.80
2017-08-18T22:22:42.147Z,19.80
2017-08-18T22:25:08.420Z,19.80
2017-08-18T22:27:34.715Z,19.80
2017-08-18T22:30:01.012Z,19.70
2017-08-18T22:32:27.354Z,19.70
2017-08-18T22:34:53.695Z,19.70
2017-08-18T22:37:20.092Z,19.50
2017-08-18T22:39:46.438Z,19.30
2017-08-18T22:42:12.753Z,19.30
2017-08-18T22:44:39.079Z,19.40
2017-08-18T22:47:05.426Z,19.20
2017-08-18T22:49:31.734Z,19.20
2017-08-18T22:51:58.073Z,19.10
2017-08-18T22:54:24.415Z,18.90
2017-08-18T22:56:50.731Z,18.80
2017-08-18T22:59:17.009Z,18.70
2017-08-18T23:01:43.311Z,18.80
2017-08-18T23:04:09.599Z,18.80
2017-08-18T23:06:36.155Z,18.80
2017-08-18T23:09:02.501Z,19.00
2017-08-18T23:11:28.770Z,19.00
2017-08-18T23:13:55.068Z,19.10
2017-08-18T23:16:21.367Z,19.00
2017-08-18T23:18:47.657Z,19.10
2017-08-18T23:21:13.933Z,19.20
2017-08-18T23:23:40.223Z,19.00
2017-08-18T23:26:06.518Z,19.20
2017-08-18T23:28:32.824Z,19.20
2017-08-18T23:30:59.109Z,19.20
2017-08-18T23:33:25.423Z,19.20
2017-08-18T23:35:51.693Z,19.00
2017-08-18T23:38:17.974Z,19.00
2017-08-18T23:40:44.263Z,18.90
2017-08-18T23:43:12.104Z,18.90
2017-08-18T23:45:38.944Z,19.10
2017-08-18T23:48:08.284Z,18.90
2017-08-18T23:50:35.778Z,18.90
2017-08-18T23:53:03.019Z,19.00
2017-08-18T23:55:29.329Z,18.90
2017-08-18T23:57:55.690Z,19.10
